createdAt,value
2018-12-23T00:00:12.362Z,999.68
2018-12-23T00:01:22.771Z,999.75
2018-12-23T00:02:32.959Z,999.75
2018-12-23T00:03:43.180Z,999.71
2018-12-23T00:04:53.261Z,999.71
2018-12-23T00:06:11.876Z,999.77
2018-12-23T00:07:21.717Z,999.72
2018-12-23T00:08:31.790Z,999.77
2018-12-23T00:09:41.858Z,999.71
2018-12-23T00:10:51.912Z,999.63
2018-12-23T00:12:01.784Z,999.6
2018-12-23T00:13:11.599Z,999.56
2018-12-23T00:14:21.715Z,999.61
2018-12-23T00:15:31.911Z,999.67
2018-12-23T00:16:42.029Z,999.66
2018-12-23T00:17:52.160Z,999.62
2018-12-23T00:19:02.739Z,999.58
2018-12-23T00:20:12.842Z,999.67
2018-12-23T00:21:22.952Z,999.64
2018-12-23T00:22:32.829Z,999.63
2018-12-23T00:23:42.918Z,999.63
2018-12-23T00:24:52.753Z,999.66
2018-12-23T00:26:02.866Z,999.69
2018-12-23T00:27:12.739Z,999.69
2018-12-23T00:28:22.813Z,999.68
2018-12-23T00:29:32.741Z,999.7
2018-12-23T00:30:42.794Z,999.81
2018-12-23T00:31:52.861Z,999.81
2018-12-23T00:33:02.936Z,999.75
2018-12-23T00:34:12.762Z,999.79
2018-12-23T00:35:22.840Z,999.84
2018-12-23T00:36:32.915Z,999.83
2018-12-23T00:37:42.983Z,999.9
2018-12-23T00:38:53.091Z,999.85
2018-12-23T00:40:05.900Z,999.92
2018-12-23T00:41:15.978Z,999.99
2018-12-23T00:42:26.053Z,999.96
2018-12-23T00:43:36.129Z,999.9
2018-12-23T00:44:46.244Z,999.97
2018-12-23T00:45:56.310Z,1000.01
2018-12-23T00:47:06.613Z,1000
2018-12-23T00:48:16.664Z,1000.02
2018-12-23T00:49:26.471Z,1000.07
2018-12-23T00:50:36.603Z,1000.02
2018-12-23T00:51:46.710Z,1000
2018-12-23T00:52:56.846Z,1000
2018-12-23T00:54:06.685Z,1000.01
2018-12-23T00:55:16.746Z,999.99
2018-12-23T00:56:26.994Z,1000.04
2018-12-23T00:57:37.052Z,1000.03
2018-12-23T00:58:47.134Z,1000.03
2018-12-23T00:59:56.943Z,1000.1
2018-12-23T01:01:07.397Z,1000.09
2018-12-23T01:02:17.549Z,1000.05
2018-12-23T01:03:27.335Z,1000.11
2018-12-23T01:04:37.138Z,1000.13
2018-12-23T01:05:47.213Z,1000.1
2018-12-23T01:06:57.083Z,1000.21
2018-12-23T01:08:06.899Z,1000.19
2018-12-23T01:09:16.721Z,1000.23
2018-12-23T01:10:26.786Z,1000.2
2018-12-23T01:11:36.852Z,1000.21
2018-12-23T01:12:46.916Z,1000.24
2018-12-23T01:13:57.040Z,1000.23
2018-12-23T01:15:07.118Z,1000.2
2018-12-23T01:16:17.191Z,1000.22
2018-12-23T01:17:27.255Z,1000.23
2018-12-23T01:18:37.311Z,1000.14
2018-12-23T01:19:47.391Z,1000.21
2018-12-23T01:20:57.456Z,1000.25
2018-12-23T01:22:07.328Z,1000.18
2018-12-23T01:23:17.129Z,1000.23
2018-12-23T01:24:27.312Z,1000.22
2018-12-23T01:25:37.436Z,1000.15
2018-12-23T01:26:47.488Z,1000.22
2018-12-23T01:27:57.601Z,1000.14
2018-12-23T01:29:07.659Z,1000.26
2018-12-23T01:30:17.724Z,1000.24
2018-12-23T01:31:27.537Z,1000.28
2018-12-23T01:32:37.588Z,1000.36
2018-12-23T01:33:47.669Z,1000.29
2018-12-23T01:34:57.736Z,1000.23
2018-12-23T01:36:08.019Z,1000.26
2018-12-23T01:37:18.092Z,1000.29
2018-12-23T01:38:28.172Z,1000.34
2018-12-23T01:39:38.249Z,1000.29
2018-12-23T01:40:47.793Z,1000.29
2018-12-23T01:41:57.597Z,1000.35
2018-12-23T01:43:07.642Z,1000.33
2018-12-23T01:44:17.761Z,1000.43
2018-12-23T01:45:27.840Z,1000.48
2018-12-23T01:46:37.901Z,1000.46
2018-12-23T01:47:47.954Z,1000.5
2018-12-23T01:48:57.810Z,1000.52
2018-12-23T01:50:10.910Z,1000.53
2018-12-23T01:51:20.975Z,1000.43
2018-12-23T01:52:31.047Z,1000.44
2018-12-23T01:53:41.108Z,1000.46
2018-12-23T01:54:51.187Z,1000.5
2018-12-23T01:56:00.831Z,1000.52
2018-12-23T01:57:11.166Z,1000.54
2018-12-23T01:58:21.231Z,1000.55
2018-12-23T01:59:31.297Z,1000.5
2018-12-23T02:00:41.381Z,1000.48
2018-12-23T02:01:51.684Z,1000.54
2018-12-23T02:03:01.760Z,1000.51
2018-12-23T02:04:11.905Z,1000.55
2018-12-23T02:05:21.957Z,1000.56
2018-12-23T02:06:32.176Z,1000.53
2018-12-23T02:07:42.275Z,1000.6
2018-12-23T02:08:52.362Z,1000.59
2018-12-23T02:10:02.783Z,1000.69
2018-12-23T02:11:12.340Z,1000.66
2018-12-23T02:12:22.439Z,1000.57
2018-12-23T02:13:32.249Z,1000.6
2018-12-23T02:14:42.420Z,1000.62
2018-12-23T02:15:52.249Z,1000.64
2018-12-23T02:17:03.224Z,1000.56
2018-12-23T02:18:13.298Z,1000.64
2018-12-23T02:19:23.343Z,1000.72
2018-12-23T02:20:33.159Z,1000.66
2018-12-23T02:21:43.237Z,1000.72
2018-12-23T02:22:53.299Z,1000.72
2018-12-23T02:24:04.231Z,1000.75
2018-12-23T02:25:14.383Z,1000.77
2018-12-23T02:26:24.424Z,1000.77
2018-12-23T02:27:34.481Z,1000.78
2018-12-23T02:28:44.555Z,1000.87
2018-12-23T02:29:54.670Z,1000.87
2018-12-23T02:31:04.487Z,1000.89
2018-12-23T02:32:14.705Z,1000.86
2018-12-23T02:33:24.790Z,1000.88
2018-12-23T02:34:34.870Z,1000.83
2018-12-23T02:35:44.993Z,1000.91
2018-12-23T02:37:04.190Z,1000.96
2018-12-23T02:38:14.256Z,1000.9
2018-12-23T02:39:24.318Z,1000.92
2018-12-23T02:40:34.427Z,1000.94
2018-12-23T02:41:44.241Z,1000.97
2018-12-23T02:42:54.558Z,1001.02
2018-12-23T02:44:04.610Z,1000.94
2018-12-23T02:45:14.672Z,1000.91
2018-12-23T02:46:24.823Z,1001.02
2018-12-23T02:47:34.877Z,1000.99
2018-12-23T02:48:44.690Z,1000.98
2018-12-23T02:49:54.520Z,1000.99
2018-12-23T02:51:05.465Z,1001.01
2018-12-23T02:52:15.547Z,1001.04
2018-12-23T02:53:25.590Z,1001
2018-12-23T02:54:35.678Z,1001.02
2018-12-23T02:55:45.758Z,1000.96
2018-12-23T02:56:55.814Z,1000.92
2018-12-23T02:58:05.886Z,1000.94
2018-12-23T02:59:16.004Z,1000.9
2018-12-23T03:00:25.787Z,1000.89
2018-12-23T03:01:35.848Z,1000.91
2018-12-23T03:02:45.929Z,1000.92
2018-12-23T03:34:53.135Z,1000.66
2018-12-23T03:36:03.296Z,1000.65
2018-12-23T03:37:22.591Z,1000.75
2018-12-23T03:38:32.510Z,1000.74
2018-12-23T03:39:42.570Z,1000.67
2018-12-23T03:40:52.701Z,1000.78
2018-12-23T03:42:02.830Z,1000.75
2018-12-23T03:43:12.899Z,1000.77
2018-12-23T03:44:22.941Z,1000.77
2018-12-23T03:45:33.083Z,1000.85
2018-12-23T03:46:43.173Z,1000.85
2018-12-23T03:47:53.262Z,1000.94
2018-12-23T03:49:02.837Z,1000.96
2018-12-23T03:50:13.087Z,1000.93
2018-12-23T03:51:23.218Z,1001
2018-12-23T03:52:32.993Z,1000.99
2018-12-23T03:53:43.047Z,1001.11
2018-12-23T03:54:53.136Z,1000.95
2018-12-23T03:56:04.281Z,1001.04
2018-12-23T03:57:14.358Z,1001.07
2018-12-23T03:58:23.898Z,1001.11
2018-12-23T03:59:33.458Z,1001.13
2018-12-23T04:00:42.797Z,1001.08
2018-12-23T04:01:52.852Z,1001.1
2018-12-23T04:03:02.917Z,1001.21
2018-12-23T04:04:12.799Z,1001.17
2018-12-23T04:05:22.857Z,1001.16
2018-12-23T04:06:32.926Z,1001.29
2018-12-23T04:07:43.016Z,1001.18
2018-12-23T04:08:53.154Z,1001.21
2018-12-23T04:10:05.520Z,1001.21
2018-12-23T04:11:15.577Z,1001.15
2018-12-23T04:12:25.620Z,1001.15
2018-12-23T04:13:35.709Z,1001.17
2018-12-23T04:14:45.702Z,1001.15
2018-12-23T04:15:55.571Z,1001.18
2018-12-23T04:17:06.886Z,1001.14
2018-12-23T04:18:16.447Z,1001.16
2018-12-23T04:19:26.499Z,1001.12
2018-12-23T04:20:36.631Z,1001.11
2018-12-23T04:21:46.684Z,1001.06
2018-12-23T04:22:56.751Z,1001.12
2018-12-23T04:24:07.662Z,1001.1
2018-12-23T04:25:17.898Z,1001.1
2018-12-23T04:26:28.016Z,1001.14
2018-12-23T04:27:38.019Z,1001.18
2018-12-23T04:28:47.878Z,1001.14
2018-12-23T04:29:57.931Z,1001.2
2018-12-23T04:31:08.330Z,1001.18
2018-12-23T04:32:18.403Z,1001.13
2018-12-23T04:33:28.482Z,1001.21
2018-12-23T04:34:38.608Z,1001.23
2018-12-23T04:35:48.696Z,1001.18
2018-12-23T04:36:58.500Z,1001.23
2018-12-23T04:38:09.973Z,1001.21
2018-12-23T04:39:20.040Z,1001.31
2018-12-23T04:40:30.105Z,1001.4
2018-12-23T04:41:40.288Z,1001.32
2018-12-23T04:42:50.124Z,1001.32
2018-12-23T04:44:00.332Z,1001.35
2018-12-23T04:45:10.477Z,1001.37
2018-12-23T04:46:20.655Z,1001.38
2018-12-23T04:47:30.735Z,1001.32
2018-12-23T04:48:40.796Z,1001.28
2018-12-23T04:49:50.596Z,1001.35
2018-12-23T04:51:01.870Z,1001.34
2018-12-23T04:52:11.683Z,1001.4
2018-12-23T04:53:21.770Z,1001.41
2018-12-23T04:54:31.863Z,1001.46
2018-12-23T04:55:42.024Z,1001.45
2018-12-23T04:56:52.401Z,1001.49
2018-12-23T04:58:02.667Z,1001.44
2018-12-23T04:59:12.710Z,1001.51
2018-12-23T05:00:22.778Z,1001.56
2018-12-23T05:01:32.837Z,1001.5
2018-12-23T05:02:42.410Z,1001.55
2018-12-23T05:03:52.491Z,1001.56
2018-12-23T05:05:02.298Z,1001.64
2018-12-23T05:06:12.362Z,1001.64
2018-12-23T05:07:23.303Z,1001.7
2018-12-23T05:08:33.371Z,1001.67
2018-12-23T05:09:43.641Z,1001.8
2018-12-23T05:10:53.460Z,1001.79
2018-12-23T05:12:03.316Z,1001.81
2018-12-23T05:13:13.385Z,1001.74
2018-12-23T05:14:23.523Z,1001.79
2018-12-23T05:15:33.607Z,1001.81
2018-12-23T05:16:43.684Z,1001.78
2018-12-23T05:17:53.247Z,1001.95
2018-12-23T05:19:05.970Z,1001.95
2018-12-23T05:20:16.051Z,1001.98
2018-12-23T05:21:26.115Z,1001.88
2018-12-23T05:22:36.167Z,1002
2018-12-23T05:23:46.111Z,1001.99
2018-12-23T05:24:56.176Z,1001.97
2018-12-23T05:26:06.492Z,1001.97
2018-12-23T05:27:16.545Z,1001.97
2018-12-23T05:28:26.622Z,1001.99
2018-12-23T05:29:36.590Z,1002.02
2018-12-23T05:30:46.808Z,1002.02
2018-12-23T05:31:56.874Z,1002.09
2018-12-23T05:33:09.055Z,1002.08
2018-12-23T05:34:18.874Z,1002.04
2018-12-23T05:35:28.933Z,1002.13
2018-12-23T05:36:39.002Z,1002.11
2018-12-23T05:37:57.592Z,1002.15
2018-12-23T05:39:07.768Z,1002.15
2018-12-23T05:40:17.831Z,1002.09
2018-12-23T05:41:27.904Z,1002.16
2018-12-23T05:42:37.960Z,1002.32
2018-12-23T05:43:47.769Z,1002.28
2018-12-23T05:44:57.576Z,1002.28
2018-12-23T05:46:07.664Z,1002.29
2018-12-23T05:47:17.729Z,1002.37
2018-12-23T05:48:27.649Z,1002.35
2018-12-23T05:49:37.193Z,1002.32
2018-12-23T05:50:47.500Z,1002.42
2018-12-23T05:51:57.308Z,1002.36
2018-12-23T05:53:07.261Z,1002.35
2018-12-23T05:54:17.378Z,1002.36
2018-12-23T05:55:27.449Z,1002.4
2018-12-23T05:56:37.529Z,1002.39
2018-12-23T05:57:47.595Z,1002.45
2018-12-23T05:58:57.471Z,1002.47
2018-12-23T06:00:07.994Z,1002.49
2018-12-23T06:01:18.171Z,1002.54
2018-12-23T06:02:27.972Z,1002.49
2018-12-23T06:03:37.766Z,1002.55
2018-12-23T06:04:47.563Z,1002.59
2018-12-23T06:05:57.363Z,1002.55
2018-12-23T06:07:07.429Z,1002.68
2018-12-23T06:08:17.509Z,1002.56
2018-12-23T06:09:27.566Z,1002.58
2018-12-23T06:10:37.372Z,1002.6
2018-12-23T06:11:47.440Z,1002.58
2018-12-23T06:12:57.887Z,1002.58
2018-12-23T06:14:07.850Z,1002.62
2018-12-23T06:15:17.928Z,1002.68
2018-12-23T06:16:27.988Z,1002.64
2018-12-23T06:17:38.055Z,1002.65
2018-12-23T06:18:47.876Z,1002.66
2018-12-23T06:19:57.968Z,1002.61
2018-12-23T06:21:08.031Z,1002.78
2018-12-23T06:22:17.819Z,1002.69
2018-12-23T06:23:27.882Z,1002.7
2018-12-23T06:24:37.944Z,1002.73
2018-12-23T06:25:47.758Z,1002.71
2018-12-23T06:26:58.060Z,1002.69
2018-12-23T06:28:09.059Z,1002.66
2018-12-23T06:29:19.115Z,1002.68
2018-12-23T06:30:28.940Z,1002.7
2018-12-23T06:31:38.996Z,1002.73
2018-12-23T06:32:49.065Z,1002.67
2018-12-23T06:33:58.866Z,1002.7
2018-12-23T06:35:08.664Z,1002.75
2018-12-23T06:36:18.734Z,1002.74
2018-12-23T06:37:28.798Z,1002.8
2018-12-23T06:38:38.859Z,1002.83
2018-12-23T06:39:48.925Z,1002.85
2018-12-23T06:40:59.048Z,1002.91
2018-12-23T06:42:09.087Z,1002.97
2018-12-23T06:43:19.384Z,1002.91
2018-12-23T06:44:29.425Z,1002.96
2018-12-23T06:45:39.259Z,1002.99
2018-12-23T06:46:49.353Z,1003.01
2018-12-23T06:47:59.421Z,1003
2018-12-23T06:49:09.221Z,1003.02
2018-12-23T06:50:19.882Z,1003.11
2018-12-23T06:51:30.750Z,1003.11
2018-12-23T06:52:40.821Z,1003.09
2018-12-23T06:53:50.376Z,1003.15
2018-12-23T06:55:01.359Z,1003.11
2018-12-23T06:56:11.162Z,1003.11
2018-12-23T06:57:21.333Z,1003.16
2018-12-23T06:58:31.389Z,1003.2
2018-12-23T06:59:41.465Z,1003.21
2018-12-23T07:00:51.509Z,1003.25
2018-12-23T07:02:01.598Z,1003.25
2018-12-23T07:03:11.754Z,1003.23
2018-12-23T07:04:21.583Z,1003.23
2018-12-23T07:05:31.648Z,1003.28
2018-12-23T07:06:41.958Z,1003.27
2018-12-23T07:07:51.830Z,1003.28
2018-12-23T07:09:03.424Z,1003.34
2018-12-23T07:10:13.232Z,1003.33
2018-12-23T07:11:23.318Z,1003.29
2018-12-23T07:12:33.241Z,1003.27
2018-12-23T07:13:43.310Z,1003.28
2018-12-23T07:14:53.178Z,1003.36
2018-12-23T07:16:05.867Z,1003.32
2018-12-23T07:17:15.945Z,1003.34
2018-12-23T07:18:26.008Z,1003.35
2018-12-23T07:19:36.087Z,1003.35
2018-12-23T07:20:46.201Z,1003.35
2018-12-23T07:21:58.477Z,1003.35
2018-12-23T07:23:08.282Z,1003.41
2018-12-23T07:24:18.096Z,1003.45
2018-12-23T07:25:28.160Z,1003.45
2018-12-23T07:26:37.980Z,1003.5
2018-12-23T07:27:49.049Z,1003.59
2018-12-23T07:28:59.136Z,1003.5
2018-12-23T07:30:09.175Z,1003.51
2018-12-23T07:31:18.977Z,1003.55
2018-12-23T07:32:29.110Z,1003.59
2018-12-23T07:33:39.190Z,1003.66
2018-12-23T07:34:49.261Z,1003.7
2018-12-23T07:35:59.333Z,1003.65
2018-12-23T07:37:09.396Z,1003.61
2018-12-23T07:38:28.015Z,1003.66
2018-12-23T07:39:38.073Z,1003.61
2018-12-23T07:40:47.955Z,1003.67
2018-12-23T07:41:57.990Z,1003.6
2018-12-23T07:43:09.975Z,1003.6
2018-12-23T07:44:19.567Z,1003.6
2018-12-23T07:45:29.666Z,1003.72
2018-12-23T07:46:39.743Z,1003.7
2018-12-23T07:47:49.800Z,1003.72
2018-12-23T07:48:59.625Z,1003.69
2018-12-23T07:50:11.398Z,1003.7
2018-12-23T07:51:21.205Z,1003.8
2018-12-23T07:52:31.033Z,1003.75
2018-12-23T07:53:41.099Z,1003.76
2018-12-23T07:54:51.010Z,1003.72
2018-12-23T07:56:01.073Z,1003.77
2018-12-23T07:57:11.141Z,1003.83
2018-12-23T07:58:21.202Z,1003.76
2018-12-23T07:59:31.265Z,1003.77
2018-12-23T08:00:41.068Z,1003.73
2018-12-23T08:01:51.137Z,1003.68
2018-12-23T08:03:02.372Z,1003.72
2018-12-23T08:04:12.480Z,1003.67
2018-12-23T08:05:22.563Z,1003.71
2018-12-23T08:06:32.631Z,1003.73
2018-12-23T08:07:42.843Z,1003.83
2018-12-23T08:08:52.919Z,1003.79
2018-12-23T08:10:03.848Z,1003.79
2018-12-23T08:11:13.919Z,1003.78
2018-12-23T08:12:23.994Z,1003.79
2018-12-23T08:13:34.109Z,1003.74
2018-12-23T08:14:44.330Z,1003.81
2018-12-23T08:15:54.420Z,1003.79
2018-12-23T08:17:04.483Z,1003.81
2018-12-23T08:18:15.176Z,1003.86
2018-12-23T08:19:25.054Z,1003.94
2018-12-23T08:20:35.135Z,1003.86
2018-12-23T08:21:45.198Z,1003.88
2018-12-23T08:22:55.332Z,1003.81
2018-12-23T08:24:08.141Z,1003.78
2018-12-23T08:25:18.327Z,1003.82
2018-12-23T08:26:36.063Z,1003.79
2018-12-23T08:27:46.149Z,1003.76
2018-12-23T08:28:55.953Z,1003.74
2018-12-23T08:30:07.849Z,1003.79
2018-12-23T08:31:17.939Z,1003.81
2018-12-23T08:32:27.994Z,1003.78
2018-12-23T08:33:37.803Z,1003.8
2018-12-23T08:34:47.886Z,1003.82
2018-12-23T08:35:58.007Z,1003.8
2018-12-23T08:37:08.669Z,1003.84
2018-12-23T08:38:18.783Z,1003.87
2018-12-23T08:39:28.602Z,1003.88
2018-12-23T08:40:38.502Z,1004.02
2018-12-23T08:41:48.842Z,1003.91
2018-12-23T08:42:59.174Z,1003.94
2018-12-23T08:44:09.289Z,1003.9
2018-12-23T08:45:19.355Z,1003.94
2018-12-23T08:46:29.457Z,1003.92
2018-12-23T08:47:46.857Z,1004.03
2018-12-23T08:48:56.950Z,1004
2018-12-23T08:50:07.034Z,1003.96
2018-12-23T08:51:17.176Z,1004.13
2018-12-23T08:52:27.246Z,1004.02
2018-12-23T08:53:37.327Z,1004.05
2018-12-23T08:54:47.150Z,1004.1
2018-12-23T08:55:57.245Z,1004.04
2018-12-23T08:57:07.368Z,1004.03
2018-12-23T08:58:17.289Z,1004.08
2018-12-23T08:59:27.386Z,1004.07
2018-12-23T09:00:37.556Z,1004.06
2018-12-23T09:01:47.373Z,1004.12
2018-12-23T09:02:57.202Z,1004.16
2018-12-23T09:04:09.127Z,1004.07
2018-12-23T09:05:19.213Z,1004.12
2018-12-23T09:06:29.559Z,1004.01
2018-12-23T09:07:39.649Z,1004.1
2018-12-23T09:08:58.216Z,1004.12
2018-12-23T09:10:10.899Z,1004.11
2018-12-23T09:11:21.003Z,1004.07
2018-12-23T09:12:30.823Z,1004.21
2018-12-23T09:13:40.911Z,1004.07
2018-12-23T09:14:50.748Z,1004.12
2018-12-23T09:16:01.422Z,1004.06
2018-12-23T09:17:11.505Z,1004.06
2018-12-23T09:18:21.325Z,1004.07
2018-12-23T09:19:31.401Z,1004.07
2018-12-23T09:20:41.285Z,1004.06
2018-12-23T09:21:51.137Z,1004.09
2018-12-23T09:23:01.207Z,1004.05
2018-12-23T09:24:11.045Z,1004.08
2018-12-23T09:25:21.137Z,1004.09
2018-12-23T09:26:31.271Z,1004.06
2018-12-23T09:27:41.405Z,1004.13
2018-12-23T09:28:51.486Z,1004.02
2018-12-23T09:30:01.652Z,1003.99
2018-12-23T09:31:11.747Z,1003.96
2018-12-23T09:32:21.832Z,1004.01
2018-12-23T09:33:31.932Z,1004.06
2018-12-23T09:34:42.004Z,1004.16
2018-12-23T09:35:52.090Z,1004.05
2018-12-23T09:37:03.563Z,1004.01
2018-12-23T09:38:13.643Z,1004.09
2018-12-23T09:39:23.755Z,1004.03
2018-12-23T09:40:33.827Z,1004.07
2018-12-23T09:41:43.930Z,1003.97
2018-12-23T09:42:53.988Z,1004.05
2018-12-23T09:44:04.215Z,1004.02
2018-12-23T09:45:14.353Z,1004
2018-12-23T09:46:24.165Z,1004.05
2018-12-23T09:47:34.334Z,1003.98
2018-12-23T09:48:45.422Z,1004.01
2018-12-23T09:49:55.563Z,1004.11
2018-12-23T09:51:08.304Z,1004.13
2018-12-23T09:52:18.379Z,1004.01
2018-12-23T09:53:28.479Z,1004
2018-12-23T09:54:38.302Z,1004.15
2018-12-23T09:55:48.395Z,1004.13
2018-12-23T09:56:58.483Z,1004.16
2018-12-23T09:58:08.568Z,1004.1
2018-12-23T09:59:18.665Z,1004
2018-12-23T10:00:28.461Z,1004.01
2018-12-23T10:01:38.352Z,1003.96
2018-12-23T10:02:48.483Z,1003.96
2018-12-23T10:03:58.599Z,1004.04
2018-12-23T10:05:08.941Z,1004.03
2018-12-23T10:06:19.097Z,1003.96
2018-12-23T10:07:28.938Z,1003.91
2018-12-23T10:08:40.152Z,1003.96
2018-12-23T10:09:50.221Z,1003.91
2018-12-23T10:11:00.532Z,1003.89
2018-12-23T10:12:10.607Z,1003.86
2018-12-23T10:13:20.717Z,1003.78
2018-12-23T10:14:30.865Z,1003.77
2018-12-23T10:15:40.978Z,1003.79
2018-12-23T10:16:51.091Z,1003.78
2018-12-23T10:18:01.324Z,1003.74
2018-12-23T10:19:11.430Z,1003.77
2018-12-23T10:20:21.565Z,1003.62
2018-12-23T10:21:31.647Z,1003.67
2018-12-23T10:22:41.459Z,1003.63
2018-12-23T10:23:51.617Z,1003.58
2018-12-23T10:25:01.849Z,1003.67
2018-12-23T10:26:12.197Z,1003.63
2018-12-23T10:27:22.287Z,1003.65
2018-12-23T10:28:32.375Z,1003.58
2018-12-23T10:29:42.450Z,1003.56
2018-12-23T10:30:52.522Z,1003.57
2018-12-23T10:32:02.645Z,1003.51
2018-12-23T10:33:12.221Z,1003.62
2018-12-23T10:34:22.059Z,1003.47
2018-12-23T10:35:33.746Z,1003.49
2018-12-23T10:36:43.848Z,1003.46
2018-12-23T10:37:53.919Z,1003.42
2018-12-23T10:39:04.007Z,1003.5
2018-12-23T10:40:14.057Z,1003.3
2018-12-23T10:41:24.115Z,1003.38
2018-12-23T10:42:34.186Z,1003.4
2018-12-23T10:43:44.268Z,1003.35
2018-12-23T10:44:54.346Z,1003.27
2018-12-23T10:46:04.444Z,1003.33
2018-12-23T10:47:14.536Z,1003.27
2018-12-23T10:48:24.602Z,1003.15
2018-12-23T10:49:35.749Z,1003.24
2018-12-23T10:50:45.815Z,1003.15
2018-12-23T10:51:56.005Z,1003.08
2018-12-23T10:53:06.509Z,1003.06
2018-12-23T10:54:16.654Z,1003.16
2018-12-23T10:55:26.784Z,1003.08
2018-12-23T10:56:36.920Z,1003.07
2018-12-23T10:57:47.008Z,1003.21
2018-12-23T10:58:56.838Z,1003.1
2018-12-23T11:00:07.914Z,1003.08
2018-12-23T11:01:19.542Z,1003.09
2018-12-23T11:02:29.646Z,1003.08
2018-12-23T11:03:39.475Z,1002.99
2018-12-23T11:04:49.276Z,1002.95
2018-12-23T11:05:59.411Z,1002.87
2018-12-23T11:07:11.034Z,1002.96
2018-12-23T11:08:26.821Z,1003.01
2018-12-23T11:09:37.187Z,1003.04
2018-12-23T11:10:47.281Z,1002.89
2018-12-23T11:11:57.322Z,1002.95
2018-12-23T11:13:07.426Z,1002.92
2018-12-23T11:14:17.560Z,1002.99
2018-12-23T11:15:27.406Z,1002.91
2018-12-23T11:16:37.503Z,1002.82
2018-12-23T11:17:47.616Z,1002.86
2018-12-23T11:18:57.702Z,1002.88
2018-12-23T11:20:07.801Z,1002.88
2018-12-23T11:21:17.643Z,1002.87
2018-12-23T11:22:27.739Z,1002.82
2018-12-23T11:23:37.848Z,1002.86
2018-12-23T11:24:48.000Z,1002.77
2018-12-23T11:25:58.097Z,1002.74
2018-12-23T11:27:08.196Z,1002.78
2018-12-23T11:28:18.042Z,1002.71
2018-12-23T11:29:28.116Z,1002.83
2018-12-23T11:30:38.392Z,1002.85
2018-12-23T11:31:48.228Z,1002.81
2018-12-23T11:32:58.296Z,1002.91
2018-12-23T11:34:10.692Z,1002.94
2018-12-23T11:35:20.782Z,1002.93
2018-12-23T11:36:30.431Z,1002.9
2018-12-23T11:37:40.556Z,1003.01
2018-12-23T11:38:50.796Z,1002.91
2018-12-23T11:40:02.433Z,1002.92
2018-12-23T11:41:12.039Z,1002.91
2018-12-23T11:42:22.141Z,1002.94
2018-12-23T11:43:32.233Z,1002.95
2018-12-23T11:44:42.328Z,1002.94
2018-12-23T11:45:52.437Z,1002.88
2018-12-23T11:47:03.365Z,1002.87
2018-12-23T11:48:13.567Z,1002.84
2018-12-23T11:49:23.660Z,1002.88
2018-12-23T11:50:34.513Z,1002.83
2018-12-23T11:51:44.608Z,1002.94
2018-12-23T11:52:54.697Z,1002.99
2018-12-23T11:54:04.827Z,1003.06
2018-12-23T11:55:14.910Z,1003.09
2018-12-23T11:56:24.737Z,1003.11
2018-12-23T11:57:34.826Z,1003.07
2018-12-23T11:58:44.679Z,1003.12
2018-12-23T11:59:54.881Z,1003.2
2018-12-23T12:01:05.281Z,1003.21
2018-12-23T12:02:15.599Z,1003.24
2018-12-23T12:03:25.479Z,1003.16
2018-12-23T12:04:35.299Z,1003.2
2018-12-23T12:05:45.547Z,1003.23
2018-12-23T12:06:55.697Z,1003.18
2018-12-23T12:08:08.326Z,1003.23
2018-12-23T12:09:18.426Z,1003.2
2018-12-23T12:10:28.816Z,1003.17
2018-12-23T12:11:38.973Z,1003.15
2018-12-23T12:12:49.215Z,1003.12
2018-12-23T12:13:59.387Z,1003.08
2018-12-23T12:15:09.499Z,1003.06
2018-12-23T12:16:19.608Z,1002.96
2018-12-23T12:17:29.754Z,1002.93
2018-12-23T12:18:39.661Z,1002.9
2018-12-23T12:19:50.039Z,1002.9
2018-12-23T12:21:01.343Z,1002.92
2018-12-23T12:22:11.189Z,1002.93
2018-12-23T12:23:21.360Z,1002.85
2018-12-23T12:24:31.539Z,1002.88
2018-12-23T12:25:41.707Z,1002.85
2018-12-23T12:26:51.792Z,1002.9
2018-12-23T12:28:01.905Z,1002.88
2018-12-23T12:29:11.995Z,1002.84
2018-12-23T12:30:22.137Z,1002.83
2018-12-23T12:31:32.022Z,1002.81
2018-12-23T12:32:42.113Z,1002.79
2018-12-23T12:33:52.204Z,1002.8
2018-12-23T12:35:02.049Z,1002.79
2018-12-23T12:36:12.162Z,1002.78
2018-12-23T12:37:22.263Z,1002.86
2018-12-23T12:38:32.342Z,1002.78
2018-12-23T12:39:42.516Z,1002.72
2018-12-23T12:40:52.672Z,1002.74
2018-12-23T12:42:02.910Z,1002.73
2018-12-23T12:43:13.203Z,1002.74
2018-12-23T12:44:23.300Z,1002.74
2018-12-23T12:45:33.432Z,1002.71
2018-12-23T12:46:43.784Z,1002.76
2018-12-23T12:47:53.861Z,1002.72
2018-12-23T12:49:05.508Z,1002.71
2018-12-23T12:50:15.336Z,1002.73
2018-12-23T12:51:25.156Z,1002.7
2018-12-23T12:52:35.002Z,1002.71
2018-12-23T12:53:45.133Z,1002.73
2018-12-23T12:54:54.965Z,1002.72
2018-12-23T12:56:05.112Z,1002.7
2018-12-23T12:57:15.214Z,1002.69
2018-12-23T12:58:25.090Z,1002.72
2018-12-23T12:59:35.172Z,1002.71
2018-12-23T13:00:45.284Z,1002.77
2018-12-23T13:01:55.363Z,1002.78
2018-12-23T13:03:05.658Z,1002.75
2018-12-23T13:04:15.830Z,1002.78
2018-12-23T13:05:25.902Z,1002.73
2018-12-23T13:06:36.329Z,1002.76
2018-12-23T13:07:46.556Z,1002.7
2018-12-23T13:09:00.404Z,1002.66
2018-12-23T13:10:10.958Z,1002.6
2018-12-23T13:11:21.067Z,1002.6
2018-12-23T13:12:31.165Z,1002.64
2018-12-23T13:13:41.230Z,1002.65
2018-12-23T13:14:51.347Z,1002.65
2018-12-23T13:16:01.484Z,1002.7
2018-12-23T13:17:11.561Z,1002.69
2018-12-23T13:18:21.633Z,1002.69
2018-12-23T13:19:31.701Z,1002.64
2018-12-23T13:20:41.806Z,1002.66
2018-12-23T13:21:51.638Z,1002.62
2018-12-23T13:23:01.504Z,1002.62
2018-12-23T13:24:11.640Z,1002.62
2018-12-23T13:25:21.715Z,1002.63
2018-12-23T13:26:31.836Z,1002.6
2018-12-23T13:27:41.672Z,1002.61
2018-12-23T13:28:51.760Z,1002.57
2018-12-23T13:30:01.612Z,1002.52
2018-12-23T13:31:13.199Z,1002.58
2018-12-23T13:32:23.019Z,1002.51
2018-12-23T13:33:32.870Z,1002.53
2018-12-23T13:34:43.019Z,1002.46
2018-12-23T13:35:53.334Z,1002.5
2018-12-23T13:37:03.549Z,1002.46
2018-12-23T13:38:13.617Z,1002.47
2018-12-23T13:39:23.229Z,1002.46
2018-12-23T13:40:33.333Z,1002.42
2018-12-23T13:41:42.946Z,1002.41
2018-12-23T13:42:53.108Z,1002.43
2018-12-23T13:44:03.213Z,1002.4
2018-12-23T13:45:13.303Z,1002.45
2018-12-23T13:46:23.112Z,1002.38
2018-12-23T13:47:33.422Z,1002.42
2018-12-23T13:48:43.512Z,1002.41
2018-12-23T13:49:53.589Z,1002.4
2018-12-23T13:51:03.401Z,1002.4
2018-12-23T13:52:13.709Z,1002.41
2018-12-23T13:53:23.619Z,1002.33
2018-12-23T13:54:33.753Z,1002.38
2018-12-23T13:55:43.836Z,1002.36
2018-12-23T13:56:53.407Z,1002.33
2018-12-23T13:58:03.254Z,1002.33
2018-12-23T13:59:13.368Z,1002.38
2018-12-23T14:00:23.485Z,1002.36
2018-12-23T14:01:33.557Z,1002.39
2018-12-23T14:02:43.396Z,1002.36
2018-12-23T14:03:53.495Z,1002.33
2018-12-23T14:05:06.034Z,1002.34
2018-12-23T14:06:16.266Z,1002.32
2018-12-23T14:07:26.344Z,1002.29
2018-12-23T14:08:36.469Z,1002.32
2018-12-23T14:09:46.555Z,1002.26
2018-12-23T14:10:56.654Z,1002.25
2018-12-23T14:12:06.749Z,1002.28
2018-12-23T14:13:16.864Z,1002.26
2018-12-23T14:14:26.753Z,1002.26
2018-12-23T14:15:36.939Z,1002.23
2018-12-23T14:16:47.020Z,1002.22
2018-12-23T14:17:57.138Z,1002.23
2018-12-23T14:19:06.938Z,1002.22
2018-12-23T14:20:17.089Z,1002.18
2018-12-23T14:21:27.155Z,1002.19
2018-12-23T14:22:37.257Z,1002.17
2018-12-23T14:23:47.090Z,1002.11
2018-12-23T14:24:57.275Z,1002.12
2018-12-23T14:26:07.395Z,1002.05
2018-12-23T14:27:17.498Z,1002.07
2018-12-23T14:28:27.898Z,1002.09
2018-12-23T14:29:38.264Z,1002.04
2018-12-23T14:30:48.349Z,1002.01
2018-12-23T14:31:58.160Z,1001.98
2018-12-23T14:33:08.413Z,1001.95
2018-12-23T14:34:18.227Z,1002
2018-12-23T14:35:28.407Z,1002.03
2018-12-23T14:36:39.890Z,1002.05
2018-12-23T14:37:50.087Z,1002.08
2018-12-23T14:39:00.339Z,1002.04
2018-12-23T14:40:10.436Z,1002.01
2018-12-23T14:41:20.561Z,1001.91
2018-12-23T14:42:30.659Z,1001.9
2018-12-23T14:43:40.839Z,1001.97
2018-12-23T14:44:50.907Z,1001.85
2018-12-23T14:46:01.007Z,1001.86